Time;durP1;ratioP1;P1;durP2;ratioP2;P2;SDS_P1;SDS_P2;PMS_P1;PMS_P2;Temp;Humidity;BMP_temperature;BMP_pressure;BME280_temperature;BME280_humidity;BME280_pressure;Samples;Min_cycle;Max_cycle;Signal;HPM_P1;HPM_P2
2024/02/17 00:00:07;;;;;;;24.23;13.80;;;8.20;99.90;;;;;;5111328;28;20466;-62
2024/02/17 00:02:35;;;;;;;16.92;13.68;;;8.30;99.90;;;;;;5107518;28;20078;-62
2024/02/17 00:05:02;;;;;;;18.30;14.15;;;8.20;99.90;;;;;;5109428;28;20047;-62
2024/02/17 00:07:29;;;;;;;17.85;14.60;;;8.20;99.90;;;;;;5107665;28;20089;-60
2024/02/17 00:09:57;;;;;;;13.90;11.95;;;8.10;99.90;;;;;;5099223;28;20148;-63
2024/02/17 00:12:24;;;;;;;17.05;13.55;;;8.10;99.90;;;;;;5109021;28;20035;-63
2024/02/17 00:14:51;;;;;;;15.20;11.77;;;8.00;99.90;;;;;;5109076;28;20044;-60
2024/02/17 00:17:18;;;;;;;20.67;13.80;;;7.90;99.90;;;;;;5108890;28;20040;-65
2024/02/17 00:19:46;;;;;;;15.55;10.95;;;7.80;99.90;;;;;;5109037;28;20106;-63
2024/02/17 00:22:14;;;;;;;13.80;10.50;;;7.80;99.90;;;;;;5108239;28;20790;-62
2024/02/17 00:24:41;;;;;;;12.07;9.73;;;7.70;99.90;;;;;;5108868;28;20156;-60
2024/02/17 00:27:09;;;;;;;13.88;10.40;;;7.70;99.90;;;;;;5109876;28;20048;-60
2024/02/17 00:29:36;;;;;;;11.93;10.07;;;7.60;99.90;;;;;;5110408;27;20048;-61
2024/02/17 00:32:04;;;;;;;13.00;9.52;;;7.50;99.90;;;;;;5109600;28;20044;-62
2024/02/17 00:34:31;;;;;;;11.43;9.30;;;7.50;99.90;;;;;;5108243;28;20105;-60
2024/02/17 00:36:59;;;;;;;18.45;10.77;;;7.40;99.90;;;;;;5109649;28;20562;-69
2024/02/17 00:39:26;;;;;;;15.65;9.60;;;7.30;99.90;;;;;;5108502;28;20089;-62
2024/02/17 00:41:54;;;;;;;13.40;9.15;;;7.20;99.90;;;;;;5111150;27;20051;-64
2024/02/17 00:44:21;;;;;;;12.73;9.02;;;7.10;99.90;;;;;;5111151;28;20047;-60
2024/02/17 00:46:48;;;;;;;15.65;9.82;;;7.00;99.90;;;;;;5108137;28;20077;-60
2024/02/17 00:49:15;;;;;;;13.55;9.55;;;6.90;99.90;;;;;;5111024;27;20060;-62
2024/02/17 00:51:42;;;;;;;17.65;10.20;;;6.90;99.90;;;;;;5108279;28;20036;-61
2024/02/17 00:54:09;;;;;;;14.70;9.65;;;6.80;99.90;;;;;;5108448;28;20051;-59
2024/02/17 00:56:36;;;;;;;12.70;10.27;;;6.70;99.90;;;;;;5109135;28;20127;-61
2024/02/17 00:59:03;;;;;;;13.75;10.15;;;6.60;99.90;;;;;;5109303;28;20073;-63
2024/02/17 01:01:30;;;;;;;10.38;9.27;;;6.50;99.90;;;;;;5110605;28;20043;-62
2024/02/17 01:04:06;;;;;;;9.18;7.70;;;6.40;99.90;;;;;;5107466;28;20519;-65
2024/02/17 01:06:33;;;;;;;7.57;6.78;;;6.40;99.90;;;;;;5110512;28;20502;-63
2024/02/17 01:09:00;;;;;;;7.70;6.05;;;6.40;99.90;;;;;;5106634;28;20086;-60
2024/02/17 01:11:28;;;;;;;6.68;5.93;;;6.40;99.90;;;;;;5108973;28;20096;-59
2024/02/17 01:13:55;;;;;;;4.22;3.83;;;6.40;99.90;;;;;;5106467;28;20047;-61
2024/02/17 01:16:22;;;;;;;5.28;3.70;;;6.30;99.90;;;;;;5106477;28;20044;-60
2024/02/17 01:18:49;;;;;;;6.00;2.72;;;6.30;99.90;;;;;;5106865;28;20359;-60
2024/02/17 01:21:16;;;;;;;2.20;2.00;;;6.30;99.90;;;;;;5109959;28;20058;-59
2024/02/17 01:23:43;;;;;;;2.70;1.85;;;6.30;99.90;;;;;;5109609;28;20044;-66
2024/02/17 01:26:10;;;;;;;1.55;1.45;;;6.30;99.90;;;;;;5108020;28;20494;-60
2024/02/17 01:28:37;;;;;;;1.67;1.50;;;6.30;99.90;;;;;;5109235;28;20046;-60
2024/02/17 01:31:04;;;;;;;2.88;1.70;;;6.40;99.90;;;;;;5106176;28;20031;-67
2024/02/17 01:33:31;;;;;;;2.75;1.65;;;6.40;99.90;;;;;;5108514;28;20376;-59
2024/02/17 01:35:58;;;;;;;2.72;1.23;;;6.40;99.90;;;;;;5109060;28;20497;-60
2024/02/17 01:38:25;;;;;;;1.55;1.45;;;6.40;99.90;;;;;;5107574;28;20039;-62
2024/02/17 01:40:52;;;;;;;6.32;1.60;;;6.30;99.90;;;;;;5109380;28;20467;-60
2024/02/17 01:43:20;;;;;;;1.52;1.20;;;6.30;99.90;;;;;;5105716;28;20039;-63
2024/02/17 01:45:47;;;;;;;5.25;1.27;;;6.20;99.90;;;;;;5108682;28;20054;-60
2024/02/17 01:48:15;;;;;;;2.22;0.73;;;6.10;99.90;;;;;;5106372;28;20088;-63
2024/02/17 01:50:43;;;;;;;1.95;0.95;;;6.00;99.90;;;;;;5106768;28;20051;-61
2024/02/17 01:53:11;;;;;;;3.42;1.10;;;6.00;99.90;;;;;;5107500;28;20070;-60
2024/02/17 01:55:39;;;;;;;2.22;2.03;;;5.90;99.90;;;;;;5109942;28;20039;-60
2024/02/17 01:58:06;;;;;;;2.20;1.30;;;5.90;99.90;;;;;;5108679;28;20043;-61
2024/02/17 02:00:34;;;;;;;2.85;0.88;;;5.80;99.90;;;;;;5106043;28;20085;-60
2024/02/17 02:03:01;;;;;;;2.65;0.93;;;5.70;99.90;;;;;;5109051;28;20044;-66
2024/02/17 02:05:29;;;;;;;3.10;0.68;;;5.60;99.90;;;;;;5108659;28;20051;-62
2024/02/17 02:07:56;;;;;;;5.78;1.38;;;5.70;99.90;;;;;;5104459;28;20032;-60
2024/02/17 02:10:23;;;;;;;3.95;0.80;;;5.70;99.90;;;;;;5108281;28;20044;-60
2024/02/17 02:12:50;;;;;;;5.13;0.80;;;5.60;99.90;;;;;;5108523;28;20036;-63
2024/02/17 02:15:17;;;;;;;1.02;0.57;;;5.60;99.90;;;;;;5107212;28;20055;-59
2024/02/17 02:17:46;;;;;;;1.45;0.40;;;5.60;99.90;;;;;;5108278;28;20126;-61
2024/02/17 02:20:14;;;;;;;0.77;0.57;;;5.50;99.90;;;;;;5105839;28;20059;-65
2024/02/17 02:22:41;;;;;;;3.90;0.77;;;5.50;99.90;;;;;;5108531;28;20135;-60
2024/02/17 02:25:26;;;;;;;4.35;0.77;;;5.40;99.90;;;;;;5105577;28;20137;-60
2024/02/17 02:27:54;;;;;;;1.15;0.75;;;5.40;99.90;;;;;;5106426;28;20449;-61
2024/02/17 02:30:21;;;;;;;1.75;0.50;;;5.40;99.90;;;;;;5108334;28;20048;-63
2024/02/17 02:32:49;;;;;;;0.63;0.60;;;5.30;99.90;;;;;;5104369;28;20043;-59
2024/02/17 02:35:16;;;;;;;0.95;0.30;;;5.30;99.90;;;;;;5106663;28;20055;-61
2024/02/17 02:37:43;;;;;;;2.78;0.75;;;5.20;99.90;;;;;;5105890;28;20122;-61
2024/02/17 02:40:10;;;;;;;0.63;0.40;;;5.20;99.90;;;;;;5107559;28;20055;-65
2024/02/17 02:42:38;;;;;;;3.67;0.60;;;5.20;99.90;;;;;;5107579;28;20206;-60
2024/02/17 02:45:06;;;;;;;0.75;0.50;;;5.20;99.90;;;;;;5106367;28;20517;-65
2024/02/17 02:47:33;;;;;;;0.55;0.28;;;5.20;99.90;;;;;;5108731;28;20074;-62
2024/02/17 02:50:00;;;;;;;0.95;0.45;;;5.20;99.90;;;;;;5104687;28;20044;-59
2024/02/17 02:52:27;;;;;;;2.53;0.70;;;5.10;99.90;;;;;;5109153;28;20679;-65
2024/02/17 02:54:54;;;;;;;2.40;0.93;;;5.10;99.90;;;;;;5107062;28;20047;-60
2024/02/17 02:57:21;;;;;;;0.82;0.40;;;5.10;99.90;;;;;;5107226;28;20046;-61
2024/02/17 02:59:50;;;;;;;1.45;1.35;;;5.10;99.90;;;;;;5107903;28;20525;-60
2024/02/17 03:02:17;;;;;;;6.03;1.48;;;5.10;99.90;;;;;;5108487;28;20490;-62
2024/02/17 03:04:45;;;;;;;0.40;0.40;;;5.00;99.90;;;;;;5106789;28;20092;-61
2024/02/17 03:07:12;;;;;;;1.55;0.52;;;5.00;99.90;;;;;;5108228;28;20039;-59
2024/02/17 03:09:39;;;;;;;1.23;0.32;;;5.00;99.90;;;;;;5106176;28;20122;-59
2024/02/17 03:12:06;;;;;;;1.92;0.70;;;4.90;99.90;;;;;;5107383;28;20059;-61
2024/02/17 03:14:34;;;;;;;2.60;0.65;;;4.90;99.90;;;;;;5108233;28;20048;-59
2024/02/17 03:17:01;;;;;;;1.20;0.52;;;4.80;99.90;;;;;;5104636;28;20052;-64
2024/02/17 03:19:29;;;;;;;1.63;0.70;;;4.80;99.90;;;;;;5105830;28;20164;-63
2024/02/17 03:21:56;;;;;;;2.08;0.63;;;4.80;99.90;;;;;;5108211;28;20097;-65
2024/02/17 03:24:23;;;;;;;2.50;0.93;;;4.80;99.90;;;;;;5108291;28;20126;-63
2024/02/17 03:26:52;;;;;;;1.92;0.75;;;4.70;99.90;;;;;;5103219;28;20079;-59
2024/02/17 03:29:19;;;;;;;1.92;1.80;;;4.70;99.90;;;;;;5103726;28;21992;-61
2024/02/17 03:31:46;;;;;;;0.95;0.60;;;4.70;99.90;;;;;;5104535;28;20040;-60
2024/02/17 03:34:13;;;;;;;3.30;1.27;;;4.60;99.90;;;;;;5106882;28;20051;-61
2024/02/17 03:36:40;;;;;;;2.25;1.58;;;4.60;99.90;;;;;;5098853;28;20060;-63
2024/02/17 03:39:10;;;;;;;1.45;1.35;;;4.60;99.90;;;;;;5106190;28;20475;-60
2024/02/17 03:41:38;;;;;;;1.60;1.50;;;4.60;99.90;;;;;;5101174;28;20036;-60
2024/02/17 03:44:05;;;;;;;2.10;1.40;;;4.60;99.90;;;;;;5101626;28;20097;-63
2024/02/17 03:46:32;;;;;;;1.80;1.70;;;4.60;99.90;;;;;;5107086;28;20051;-62
2024/02/17 03:48:59;;;;;;;1.92;0.82;;;4.60;99.90;;;;;;5108477;28;20057;-60
2024/02/17 03:51:26;;;;;;;0.90;0.73;;;4.70;99.90;;;;;;5101806;28;20040;-63
2024/02/17 03:53:53;;;;;;;0.55;0.50;;;4.70;99.90;;;;;;5110988;28;20035;-62
2024/02/17 03:56:20;;;;;;;1.40;1.05;;;4.70;99.90;;;;;;5109502;28;20055;-59
2024/02/17 03:58:47;;;;;;;1.30;0.60;;;4.70;99.90;;;;;;5103014;28;20036;-59
2024/02/17 04:01:15;;;;;;;0.60;0.50;;;4.70;99.90;;;;;;5110441;28;20577;-59
2024/02/17 04:03:42;;;;;;;2.15;0.77;;;4.70;99.90;;;;;;5110896;28;20148;-62
2024/02/17 04:06:09;;;;;;;7.78;0.93;;;4.60;99.90;;;;;;5111099;28;20127;-60
2024/02/17 04:08:37;;;;;;;6.60;0.77;;;4.60;99.90;;;;;;5108430;28;20092;-60
2024/02/17 04:11:04;;;;;;;2.25;0.50;;;4.60;99.90;;;;;;5112449;28;20047;-62
2024/02/17 04:13:31;;;;;;;2.83;0.43;;;4.50;99.90;;;;;;5111544;28;20377;-64
2024/02/17 04:15:58;;;;;;;2.20;0.73;;;4.50;99.90;;;;;;5108403;28;20406;-61
2024/02/17 04:18:25;;;;;;;2.42;0.70;;;4.40;99.90;;;;;;5109433;28;20113;-60
2024/02/17 04:20:52;;;;;;;0.32;0.32;;;4.40;99.90;;;;;;5109429;28;20479;-62
2024/02/17 04:23:19;;;;;;;3.67;0.73;;;4.40;99.90;;;;;;5109239;28;20052;-60
2024/02/17 04:25:46;;;;;;;3.20;0.50;;;4.30;99.90;;;;;;5112051;28;20535;-64
2024/02/17 04:28:13;;;;;;;2.28;0.63;;;4.20;99.90;;;;;;5107688;28;20044;-61
2024/02/17 04:30:40;;;;;;;3.90;0.75;;;4.20;99.90;;;;;;5111420;28;20100;-62
2024/02/17 04:33:07;;;;;;;0.95;0.85;;;4.10;99.90;;;;;;5109390;28;20039;-60
2024/02/17 04:35:34;;;;;;;2.55;0.80;;;3.90;99.90;;;;;;5111077;28;20105;-61
2024/02/17 04:38:02;;;;;;;1.58;0.82;;;3.80;99.90;;;;;;5108269;28;20096;-63
2024/02/17 04:40:28;;;;;;;1.98;1.88;;;3.70;99.90;;;;;;5111435;28;20051;-60
2024/02/17 04:42:56;;;;;;;2.40;1.35;;;3.60;99.90;;;;;;5123615;27;20391;-61
2024/02/17 04:45:25;;;;;;;1.52;0.70;;;3.50;99.90;;;;;;5107951;28;20043;-60
2024/02/17 04:47:52;;;;;;;1.33;0.80;;;3.50;99.90;;;;;;5110201;28;20090;-60
2024/02/17 04:50:20;;;;;;;0.95;0.60;;;3.30;99.90;;;;;;5108747;28;20055;-61
2024/02/17 04:52:47;;;;;;;0.63;0.43;;;3.30;99.90;;;;;;5107920;28;20075;-61
2024/02/17 04:55:14;;;;;;;6.80;0.98;;;3.20;99.90;;;;;;5108481;28;20051;-59
2024/02/17 04:57:41;;;;;;;0.85;0.57;;;3.20;99.90;;;;;;5106304;28;20051;-60
2024/02/17 05:00:08;;;;;;;0.93;0.40;;;3.10;99.90;;;;;;5106172;28;20127;-59
2024/02/17 05:02:37;;;;;;;2.25;0.35;;;3.10;99.90;;;;;;5106689;28;20066;-63
2024/02/17 05:05:04;;;;;;;1.38;0.40;;;3.10;99.90;;;;;;5103882;28;20415;-65
2024/02/17 05:07:31;;;;;;;1.10;0.38;;;3.00;99.90;;;;;;5108762;28;20220;-59
2024/02/17 05:09:58;;;;;;;0.68;0.60;;;2.90;99.90;;;;;;5106734;28;20055;-60
2024/02/17 05:12:25;;;;;;;2.75;0.57;;;2.90;99.90;;;;;;5106402;28;20039;-66
2024/02/17 05:14:52;;;;;;;6.22;1.75;;;2.90;99.90;;;;;;5106365;27;20040;-60
2024/02/17 05:17:19;;;;;;;6.22;1.65;;;2.90;99.90;;;;;;5107477;28;20133;-63
2024/02/17 05:19:46;;;;;;;1.98;0.22;;;2.80;99.90;;;;;;5105047;28;20044;-61
2024/02/17 05:22:14;;;;;;;1.10;0.13;;;2.80;99.90;;;;;;5107070;28;20093;-60
2024/02/17 05:24:44;;;;;;;1.55;0.80;;;2.80;99.90;;;;;;5108476;28;20070;-60
2024/02/17 05:27:12;;;;;;;1.45;0.30;;;2.80;99.90;;;;;;5110327;28;20085;-61
2024/02/17 05:29:40;;;;;;;1.23;0.47;;;2.70;99.90;;;;;;5110238;27;20156;-59
2024/02/17 05:32:07;;;;;;;2.15;0.40;;;2.70;99.90;;;;;;5107796;28;20633;-64
2024/02/17 05:34:35;;;;;;;1.95;0.52;;;2.70;99.90;;;;;;5106598;28;20615;-64
2024/02/17 05:37:04;;;;;;;2.40;1.05;;;2.70;99.90;;;;;;5107608;28;20055;-62
2024/02/17 05:39:32;;;;;;;1.50;0.25;;;2.70;99.90;;;;;;5105855;28;20497;-60
2024/02/17 05:42:00;;;;;;;1.70;0.55;;;2.70;99.90;;;;;;5108161;28;20093;-63
2024/02/17 05:44:27;;;;;;;2.75;0.30;;;2.70;99.90;;;;;;5108720;28;20043;-61
2024/02/17 05:46:54;;;;;;;0.43;0.25;;;2.60;99.90;;;;;;5110572;28;20089;-61
2024/02/17 05:49:21;;;;;;;3.33;0.40;;;2.60;99.90;;;;;;5104555;28;20187;-59
2024/02/17 05:51:55;;;;;;;1.65;0.85;;;2.60;99.90;;;;;;5109425;28;20371;-60
2024/02/17 05:54:22;;;;;;;0.55;0.28;;;2.60;99.90;;;;;;5108775;28;20035;-60
2024/02/17 05:56:49;;;;;;;0.30;0.30;;;2.60;99.90;;;;;;5107691;28;20048;-60
2024/02/17 05:59:16;;;;;;;1.25;0.35;;;2.60;99.90;;;;;;5106500;28;20146;-64
2024/02/17 06:01:45;;;;;;;1.65;0.40;;;2.60;99.90;;;;;;5106686;28;20039;-59
2024/02/17 06:04:13;;;;;;;5.15;0.80;;;2.50;99.90;;;;;;5104364;28;20059;-60
2024/02/17 06:06:41;;;;;;;2.22;0.38;;;2.60;99.90;;;;;;5108671;28;20042;-62
2024/02/17 06:09:08;;;;;;;2.63;0.52;;;2.60;99.90;;;;;;5107082;28;20134;-62
2024/02/17 06:11:35;;;;;;;1.00;0.20;;;2.60;99.90;;;;;;5107476;28;20071;-61
2024/02/17 06:14:02;;;;;;;2.65;0.30;;;2.60;99.90;;;;;;5106424;28;20031;-68
2024/02/17 06:16:29;;;;;;;2.88;0.28;;;2.60;99.90;;;;;;5097774;28;20052;-64
2024/02/17 06:21:42;;;;;;;1.10;0.38;;;2.60;99.90;;;;;;5108545;27;20532;-61
2024/02/17 06:24:09;;;;;;;1.15;0.40;;;2.60;99.90;;;;;;5103926;28;20471;-61
2024/02/17 06:26:36;;;;;;;0.52;0.47;;;2.50;99.90;;;;;;5101201;28;20048;-66
2024/02/17 06:29:04;;;;;;;0.93;0.38;;;2.50;99.90;;;;;;5108321;28;20043;-64
2024/02/17 06:31:31;;;;;;;0.60;0.20;;;2.50;99.90;;;;;;5105714;28;20444;-62
2024/02/17 06:34:03;;;;;;;1.48;0.20;;;2.50;99.90;;;;;;5103946;28;20570;-61
2024/02/17 06:36:31;;;;;;;0.88;0.38;;;2.50;99.90;;;;;;5107553;28;20470;-68
2024/02/17 06:38:58;;;;;;;0.85;0.30;;;2.50;99.90;;;;;;5106834;28;20070;-60
2024/02/17 06:41:25;;;;;;;0.80;0.35;;;2.50;99.90;;;;;;5103001;28;20075;-61
2024/02/17 06:43:52;;;;;;;0.65;0.30;;;2.50;99.90;;;;;;5104334;28;20607;-60
2024/02/17 06:46:19;;;;;;;0.35;0.15;;;2.50;99.90;;;;;;5108068;28;20079;-60
2024/02/17 06:48:50;;;;;;;0.45;0.20;;;2.50;99.90;;;;;;5103777;28;20081;-61
2024/02/17 06:51:19;;;;;;;0.40;0.17;;;2.50;99.90;;;;;;5108414;28;20047;-63
2024/02/17 06:53:47;;;;;;;3.22;0.52;;;2.50;99.90;;;;;;5108277;28;20443;-63
2024/02/17 06:56:15;;;;;;;1.00;0.20;;;2.50;99.90;;;;;;5102406;28;20443;-59
2024/02/17 06:58:42;;;;;;;0.93;0.93;;;2.50;99.90;;;;;;5108454;28;20043;-63
2024/02/17 07:01:09;;;;;;;2.72;0.40;;;2.50;99.90;;;;;;5107792;28;20054;-62
2024/02/17 07:03:37;;;;;;;1.52;0.40;;;2.50;99.90;;;;;;5104400;28;20066;-60
2024/02/17 07:06:04;;;;;;;0.50;0.22;;;2.50;99.90;;;;;;5104627;28;20046;-60
2024/02/17 07:08:32;;;;;;;0.28;0.17;;;2.40;99.90;;;;;;5107431;28;20131;-59
2024/02/17 07:10:59;;;;;;;1.63;0.50;;;2.50;99.90;;;;;;5107590;28;20047;-64
2024/02/17 07:13:27;;;;;;;2.13;0.40;;;2.50;99.90;;;;;;5104866;28;20104;-61
2024/02/17 07:15:54;;;;;;;2.38;0.40;;;2.50;99.90;;;;;;5106419;28;20089;-62
2024/02/17 07:18:21;;;;;;;0.63;0.30;;;2.40;99.90;;;;;;5107606;28;20134;-62
2024/02/17 07:20:48;;;;;;;1.48;0.57;;;2.50;99.90;;;;;;5105486;28;20095;-61
2024/02/17 07:23:21;;;;;;;1.10;0.73;;;2.40;99.90;;;;;;5102980;28;20118;-60
2024/02/17 07:25:48;;;;;;;1.20;0.68;;;2.40;99.90;;;;;;5106349;28;20044;-63
2024/02/17 07:28:16;;;;;;;3.30;0.63;;;2.40;99.90;;;;;;5104791;28;20118;-60
2024/02/17 07:30:44;;;;;;;1.08;0.75;;;2.40;99.90;;;;;;5108768;28;20643;-65
2024/02/17 07:33:12;;;;;;;2.78;0.65;;;2.40;99.90;;;;;;5109964;28;20036;-62
2024/02/17 07:35:44;;;;;;;1.02;0.65;;;2.40;99.90;;;;;;5109597;27;20044;-65
2024/02/17 07:38:12;;;;;;;3.58;0.50;;;2.40;99.90;;;;;;5111563;28;20120;-60
2024/02/17 07:40:39;;;;;;;0.35;0.28;;;2.30;99.90;;;;;;5110634;28;20130;-60
2024/02/17 07:43:06;;;;;;;1.13;0.55;;;2.30;99.90;;;;;;5109191;28;20089;-59
2024/02/17 07:45:34;;;;;;;1.40;0.40;;;2.30;99.90;;;;;;5106004;28;20502;-64
2024/02/17 07:48:01;;;;;;;1.23;0.40;;;2.30;99.90;;;;;;5108530;28;20055;-59
2024/02/17 07:50:28;;;;;;;0.52;0.30;;;2.30;99.90;;;;;;5109443;28;20758;-62
2024/02/17 07:52:55;;;;;;;0.60;0.20;;;2.30;99.90;;;;;;5110297;28;20039;-62
2024/02/17 07:55:22;;;;;;;0.80;0.63;;;2.30;99.90;;;;;;5109532;27;20143;-61
2024/02/17 07:57:49;;;;;;;1.42;0.57;;;2.30;99.90;;;;;;5105893;28;20126;-59
2024/02/17 08:00:17;;;;;;;2.78;0.43;;;2.20;99.90;;;;;;5111283;28;20694;-62
2024/02/17 08:02:47;;;;;;;1.80;0.60;;;2.20;99.90;;;;;;5111611;28;20032;-59
2024/02/17 08:05:14;;;;;;;0.30;0.20;;;2.20;99.90;;;;;;5109248;28;20062;-60
2024/02/17 08:07:43;;;;;;;0.20;0.20;;;2.10;99.90;;;;;;5109967;28;20070;-59
2024/02/17 08:10:11;;;;;;;3.17;0.40;;;2.10;99.90;;;;;;5108987;28;20067;-59
2024/02/17 08:12:38;;;;;;;1.65;0.30;;;2.10;99.90;;;;;;5106796;27;20047;-59
2024/02/17 08:15:06;;;;;;;2.13;0.80;;;2.10;99.90;;;;;;5107879;27;20135;-60
2024/02/17 08:17:34;;;;;;;0.52;0.20;;;2.20;99.90;;;;;;5108574;28;20050;-63
2024/02/17 08:20:02;;;;;;;1.40;1.17;;;2.20;99.90;;;;;;5110236;28;20517;-61
2024/02/17 08:22:32;;;;;;;2.70;0.50;;;2.10;99.90;;;;;;5109237;28;20047;-58
2024/02/17 08:25:00;;;;;;;2.70;1.40;;;2.20;99.90;;;;;;5109717;28;20047;-59
2024/02/17 08:27:28;;;;;;;0.90;0.22;;;2.20;99.90;;;;;;5107403;28;20794;-61
2024/02/17 08:29:55;;;;;;;1.25;0.40;;;2.20;99.90;;;;;;5111354;28;20091;-60
2024/02/17 08:32:22;;;;;;;2.05;0.60;;;2.10;99.90;;;;;;5109566;27;20150;-60
2024/02/17 08:34:51;;;;;;;7.05;0.80;;;2.10;99.90;;;;;;5110468;28;20150;-61
2024/02/17 08:37:18;;;;;;;2.22;0.30;;;2.10;99.90;;;;;;5109327;27;20467;-65
2024/02/17 08:39:51;;;;;;;2.47;0.80;;;2.10;99.90;;;;;;5108962;28;20672;-58
2024/02/17 08:42:18;;;;;;;1.55;0.50;;;2.10;99.90;;;;;;5107875;28;20854;-60
2024/02/17 08:44:45;;;;;;;1.00;0.30;;;2.10;99.90;;;;;;5105954;28;20039;-59
2024/02/17 08:47:12;;;;;;;1.58;0.50;;;2.10;99.90;;;;;;5107387;28;20502;-59
2024/02/17 08:49:39;;;;;;;0.50;0.50;;;2.10;99.90;;;;;;5110981;28;20093;-60
2024/02/17 08:52:07;;;;;;;0.50;0.30;;;2.10;99.90;;;;;;5109588;28;20050;-63
2024/02/17 08:54:34;;;;;;;0.30;0.30;;;2.00;99.90;;;;;;5107285;28;20475;-59
2024/02/17 08:57:01;;;;;;;0.90;0.43;;;2.10;99.90;;;;;;5108017;28;20490;-59
2024/02/17 08:59:28;;;;;;;1.13;0.75;;;2.10;99.90;;;;;;5110577;28;20036;-59
2024/02/17 09:01:55;;;;;;;2.42;0.47;;;2.20;99.90;;;;;;5110471;28;20046;-59
2024/02/17 09:04:22;;;;;;;1.33;0.68;;;2.10;99.90;;;;;;5107429;28;20051;-59
2024/02/17 09:06:49;;;;;;;2.67;0.68;;;2.20;99.90;;;;;;5103839;28;20398;-58
2024/02/17 09:09:16;;;;;;;5.05;1.00;;;2.20;99.90;;;;;;5108265;28;20049;-59
2024/02/17 09:11:49;;;;;;;1.00;0.50;;;2.10;99.90;;;;;;5111045;28;20522;-59
2024/02/17 09:14:16;;;;;;;2.63;0.60;;;2.10;99.90;;;;;;5106268;27;20096;-60
2024/02/17 09:16:43;;;;;;;0.50;0.50;;;2.20;99.90;;;;;;5106413;28;20047;-60
2024/02/17 09:19:10;;;;;;;2.83;0.50;;;2.20;99.90;;;;;;5105913;28;20046;-59
2024/02/17 09:21:37;;;;;;;1.50;0.52;;;2.20;99.90;;;;;;5106339;28;20471;-61
2024/02/17 09:24:05;;;;;;;1.98;0.60;;;2.20;99.90;;;;;;5104605;28;20369;-64
2024/02/17 09:26:32;;;;;;;0.77;0.60;;;2.10;99.90;;;;;;5109331;28;20483;-59
2024/02/17 09:28:58;;;;;;;1.92;0.57;;;2.10;99.90;;;;;;5109622;28;20063;-62
2024/02/17 09:31:25;;;;;;;4.68;1.35;;;2.20;99.90;;;;;;5108538;28;20047;-60
2024/02/17 09:33:52;;;;;;;1.75;0.85;;;2.20;99.90;;;;;;5107383;28;20053;-59
2024/02/17 09:36:20;;;;;;;1.10;0.55;;;2.20;99.90;;;;;;5106971;28;20509;-59
2024/02/17 09:38:47;;;;;;;1.92;0.90;;;2.20;99.90;;;;;;5109864;28;20031;-60
2024/02/17 09:41:14;;;;;;;2.42;1.13;;;2.20;99.90;;;;;;5109839;28;20054;-58
2024/02/17 09:43:41;;;;;;;0.65;0.55;;;2.20;99.90;;;;;;5108315;28;20039;-59
2024/02/17 09:46:09;;;;;;;0.93;0.40;;;2.20;99.90;;;;;;5108414;28;20601;-60
2024/02/17 09:48:36;;;;;;;4.10;0.68;;;2.20;99.90;;;;;;5107522;28;20082;-58
2024/02/17 09:51:06;;;;;;;1.67;1.27;;;2.20;99.90;;;;;;5107199;28;20093;-59
2024/02/17 09:53:37;;;;;;;0.98;0.50;;;2.20;99.90;;;;;;5107532;28;20125;-60
2024/02/17 09:56:05;;;;;;;;;;;2.30;99.90;;;;;;5106676;28;20694;-59
2024/02/17 09:58:32;;;;;;;2.20;0.75;;;2.30;99.90;;;;;;5108749;28;19969;-61
2024/02/17 10:00:59;;;;;;;2.40;0.90;;;2.30;99.90;;;;;;5107846;28;20043;-59
2024/02/17 10:03:26;;;;;;;3.28;0.57;;;2.40;99.90;;;;;;5106021;28;20035;-60
2024/02/17 10:05:53;;;;;;;0.95;0.50;;;2.40;99.90;;;;;;5108815;28;20100;-59
2024/02/17 10:08:24;;;;;;;2.63;0.57;;;2.40;99.90;;;;;;5106834;28;20123;-60
2024/02/17 10:10:55;;;;;;;;;;;2.40;99.90;;;;;;5107009;28;20039;-59
2024/02/17 10:13:22;;;;;;;3.42;0.93;;;2.40;99.90;;;;;;5105950;28;19923;-58
2024/02/17 10:15:51;;;;;;;2.60;0.50;;;2.40;99.90;;;;;;5107410;28;20486;-58
2024/02/17 10:18:18;;;;;;;0.82;0.50;;;2.40;99.90;;;;;;5108951;28;20518;-60
2024/02/17 10:20:54;;;;;;;1.27;0.52;;;2.50;99.90;;;;;;5108281;28;20040;-58
2024/02/17 10:23:22;;;;;;;1.00;0.50;;;2.40;99.90;;;;;;5105870;28;20483;-63
2024/02/17 10:25:49;;;;;;;2.00;0.52;;;2.40;99.90;;;;;;5104992;28;20063;-59
2024/02/17 10:28:17;;;;;;;1.17;0.40;;;2.50;99.90;;;;;;5105602;28;20586;-59
2024/02/17 10:30:44;;;;;;;1.65;0.30;;;2.50;99.90;;;;;;5105281;28;20055;-60
2024/02/17 10:33:13;;;;;;;1.40;0.35;;;2.50;99.90;;;;;;5106548;28;20077;-59
2024/02/17 10:35:42;;;;;;;1.52;0.40;;;2.60;99.90;;;;;;5106451;28;20070;-64
2024/02/17 10:38:11;;;;;;;0.93;0.55;;;2.60;99.90;;;;;;5105368;28;20048;-60
2024/02/17 10:40:39;;;;;;;3.05;0.73;;;2.50;99.90;;;;;;5107434;28;20043;-61
2024/02/17 10:43:06;;;;;;;1.63;0.65;;;2.50;99.90;;;;;;5103266;28;20113;-61
2024/02/17 10:45:33;;;;;;;0.98;0.55;;;2.50;99.90;;;;;;5109071;27;20044;-59
2024/02/17 10:48:10;;;;;;;1.83;0.68;;;2.60;99.90;;;;;;5105141;28;20048;-59
2024/02/17 10:50:41;;;;;;;3.40;0.60;;;2.60;99.90;;;;;;5107601;28;20044;-60
2024/02/17 10:53:16;;;;;;;1.70;0.70;;;2.60;99.90;;;;;;5104745;28;20044;-62
2024/02/17 10:55:49;;;;;;;2.45;0.65;;;2.60;99.90;;;;;;5106954;28;20044;-63
2024/02/17 10:58:17;;;;;;;1.63;1.00;;;2.50;99.90;;;;;;5105432;28;20047;-58
2024/02/17 11:00:47;;;;;;;4.30;1.77;;;2.50;99.90;;;;;;5100205;28;20044;-62
2024/02/17 11:03:29;;;;;;;0.43;0.32;;;2.50;99.90;;;;;;5107381;28;20075;-65
2024/02/17 11:06:01;;;;;;;1.75;0.80;;;2.50;99.90;;;;;;5106093;28;20368;-61
2024/02/17 11:08:29;;;;;;;2.15;0.55;;;2.50;99.90;;;;;;5106331;28;20122;-59
2024/02/17 11:10:56;;;;;;;1.33;0.63;;;2.60;99.90;;;;;;5103739;28;20579;-60
2024/02/17 11:13:26;;;;;;;0.90;0.68;;;2.60;99.90;;;;;;5102954;28;20112;-58
2024/02/17 11:16:04;;;;;;;1.25;0.88;;;2.70;99.90;;;;;;5104290;28;20040;-59
2024/02/17 11:18:41;;;;;;;4.65;0.80;;;2.70;99.90;;;;;;5105745;28;20044;-61
2024/02/17 11:21:10;;;;;;;0.98;0.40;;;2.70;99.90;;;;;;5102158;28;20514;-58
2024/02/17 11:23:39;;;;;;;4.13;0.68;;;2.70;99.90;;;;;;5105244;28;20055;-68
2024/02/17 11:26:16;;;;;;;1.42;0.70;;;2.70;99.90;;;;;;5107150;28;20039;-59
2024/02/17 11:29:02;;;;;;;1.48;1.00;;;2.70;99.90;;;;;;5104392;28;20069;-59
2024/02/17 11:31:32;;;;;;;1.17;0.55;;;2.80;99.90;;;;;;5105857;28;20625;-59
2024/02/17 11:34:01;;;;;;;3.50;1.30;;;2.80;99.90;;;;;;5103681;28;20518;-65
2024/02/17 11:36:31;;;;;;;1.15;0.60;;;2.80;99.90;;;;;;5106725;28;20043;-59
2024/02/17 11:38:59;;;;;;;1.65;0.95;;;2.70;99.90;;;;;;5098003;28;20039;-67
2024/02/17 11:41:28;;;;;;;4.05;0.60;;;2.80;99.90;;;;;;5105723;28;20130;-58
2024/02/17 11:43:55;;;;;;;2.03;0.75;;;2.70;99.90;;;;;;5102584;28;20069;-59
2024/02/17 11:46:23;;;;;;;1.98;0.40;;;2.70;99.90;;;;;;5103714;28;20112;-61
2024/02/17 11:48:51;;;;;;;1.88;0.60;;;2.70;99.90;;;;;;5102967;28;20722;-59
2024/02/17 11:51:22;;;;;;;1.27;0.60;;;2.70;99.90;;;;;;5105145;28;20130;-58
2024/02/17 11:53:54;;;;;;;6.60;0.90;;;2.70;99.90;;;;;;5103191;28;20122;-59
2024/02/17 11:56:24;;;;;;;1.30;0.60;;;2.70;99.90;;;;;;5102583;28;20071;-58
2024/02/17 11:58:55;;;;;;;4.95;1.00;;;2.70;99.90;;;;;;5101799;28;20036;-58
2024/02/17 12:01:23;;;;;;;2.13;0.65;;;2.80;99.90;;;;;;5104070;28;20058;-58
2024/02/17 12:03:50;;;;;;;1.23;0.50;;;2.70;99.90;;;;;;5105740;28;20538;-58
2024/02/17 12:06:17;;;;;;;3.42;0.60;;;2.80;99.90;;;;;;5104378;28;20080;-58
2024/02/17 12:08:44;;;;;;;5.78;1.40;;;2.80;99.90;;;;;;5106254;28;20555;-59
2024/02/17 12:11:11;;;;;;;3.88;0.82;;;2.80;99.90;;;;;;5106079;28;20231;-61
2024/02/17 12:13:38;;;;;;;2.88;0.70;;;2.80;99.90;;;;;;5104884;28;20039;-61
2024/02/17 12:16:11;;;;;;;7.97;0.90;;;2.80;99.90;;;;;;5109788;28;20047;-59
2024/02/17 12:18:42;;;;;;;4.07;0.88;;;2.80;99.90;;;;;;5108118;28;20090;-60
2024/02/17 12:21:10;;;;;;;2.50;0.77;;;2.80;99.90;;;;;;5103706;28;20047;-59
2024/02/17 12:23:42;;;;;;;3.60;1.48;;;2.80;99.90;;;;;;5106611;28;20118;-62
2024/02/17 12:26:11;;;;;;;2.55;0.90;;;2.80;99.90;;;;;;5110337;28;20043;-59
2024/02/17 12:28:54;;;;;;;3.63;0.70;;;2.80;99.90;;;;;;5107455;28;20134;-60
2024/02/17 12:31:24;;;;;;;5.75;1.27;;;2.80;99.90;;;;;;5109104;28;20047;-59
2024/02/17 12:33:51;;;;;;;2.13;1.05;;;2.80;99.90;;;;;;5104997;28;20115;-61
2024/02/17 12:36:22;;;;;;;4.43;1.27;;;2.80;99.90;;;;;;5109527;27;20108;-62
2024/02/17 12:39:00;;;;;;;2.55;0.73;;;2.80;99.90;;;;;;5105768;28;20460;-60
2024/02/17 12:41:27;;;;;;;2.35;0.88;;;2.80;99.90;;;;;;5101365;28;20044;-61
2024/02/17 12:43:54;;;;;;;3.85;2.00;;;2.80;99.90;;;;;;5105342;28;20035;-58
2024/02/17 12:46:26;;;;;;;6.40;1.02;;;2.80;99.90;;;;;;5105342;28;20047;-60
2024/02/17 12:48:53;;;;;;;9.82;0.85;;;2.80;99.90;;;;;;5105550;28;20218;-62
2024/02/17 12:51:28;;;;;;;2.63;0.57;;;2.80;99.90;;;;;;5107889;28;20044;-60
2024/02/17 12:53:57;;;;;;;1.45;0.40;;;2.80;99.90;;;;;;5101296;28;20040;-63
2024/02/17 12:56:24;;;;;;;5.25;0.52;;;2.80;99.90;;;;;;5109073;28;20054;-61
2024/02/17 12:58:52;;;;;;;2.38;0.68;;;2.80;99.90;;;;;;5109232;27;20896;-58
2024/02/17 13:01:19;;;;;;;4.28;1.35;;;2.90;99.90;;;;;;5109521;28;20554;-62